createdAt,value
2023-05-04T00:02:11.738Z,15.21
2023-05-04T00:04:38.670Z,15.41
2023-05-04T00:07:05.721Z,15.32
2023-05-04T00:09:32.630Z,15.44
2023-05-04T00:11:59.502Z,15.44
2023-05-04T00:14:26.744Z,15.43
2023-05-04T00:16:53.529Z,15.48
2023-05-04T00:19:20.488Z,15.47
2023-05-04T00:21:47.296Z,14.67
2023-05-04T00:24:14.228Z,14.47
2023-05-04T00:26:41.373Z,14.04
2023-05-04T00:29:08.219Z,14.04
2023-05-04T00:31:35.098Z,14.01
2023-05-04T00:34:02.104Z,13.80
2023-05-04T00:36:29.011Z,13.52
2023-05-04T00:38:55.870Z,14.25
2023-05-04T00:41:22.643Z,14.70
2023-05-04T00:43:50.041Z,13.76
2023-05-04T00:46:16.799Z,12.78
2023-05-04T00:48:45.841Z,13.09
2023-05-04T00:51:13.175Z,13.98
2023-05-04T00:53:40.061Z,13.10
2023-05-04T00:56:07.103Z,13.06
2023-05-04T00:58:34.116Z,13.07
2023-05-04T01:01:01.798Z,13.62
2023-05-04T01:03:29.025Z,13.82
2023-05-04T01:06:21.855Z,13.80
2023-05-04T01:09:03.404Z,12.64
2023-05-04T01:11:40.750Z,12.86
2023-05-04T01:14:07.903Z,12.44
2023-05-04T01:16:34.938Z,12.43
2023-05-04T01:19:03.428Z,13.07
2023-05-04T01:21:30.592Z,13.72
2023-05-04T01:23:58.109Z,12.58
2023-05-04T01:26:27.796Z,12.64
2023-05-04T01:29:00.342Z,12.79
2023-05-04T01:31:28.076Z,13.18
2023-05-04T01:33:55.695Z,13.66
2023-05-04T01:36:22.679Z,13.43
2023-05-04T01:38:53.265Z,13.34
2023-05-04T01:41:20.911Z,13.32
2023-05-04T01:43:48.715Z,13.01
2023-05-04T01:46:15.460Z,13.13
2023-05-04T01:48:42.332Z,12.85
2023-05-04T01:51:09.194Z,12.70
2023-05-04T01:53:36.215Z,12.67
2023-05-04T01:56:03.004Z,12.71
2023-05-04T01:58:30.001Z,12.66
2023-05-04T02:00:58.679Z,12.69
2023-05-04T02:03:25.896Z,12.96
2023-05-04T02:05:52.845Z,12.79
2023-05-04T02:08:19.806Z,12.84
2023-05-04T02:10:47.405Z,13.02
2023-05-04T02:13:15.464Z,13.03
2023-05-04T02:15:42.645Z,13.45
2023-05-04T02:18:10.633Z,12.94
2023-05-04T02:20:38.030Z,12.81
2023-05-04T02:23:05.389Z,12.84
2023-05-04T02:25:32.225Z,12.88
2023-05-04T02:27:58.956Z,12.97
2023-05-04T02:30:26.174Z,12.97
2023-05-04T02:32:53.245Z,12.82
2023-05-04T02:35:22.254Z,12.66
2023-05-04T02:37:49.079Z,12.65
2023-05-04T02:40:16.248Z,12.88
2023-05-04T02:42:43.085Z,13.10
2023-05-04T02:45:10.318Z,13.09
2023-05-04T02:47:37.401Z,12.81
2023-05-04T02:50:05.229Z,12.73
2023-05-04T02:52:33.320Z,12.81
2023-05-04T02:55:00.982Z,12.95
2023-05-04T02:57:27.820Z,12.97
2023-05-04T02:59:54.689Z,13.08
2023-05-04T03:02:21.456Z,13.07
2023-05-04T03:04:48.457Z,13.08
2023-05-04T03:07:15.303Z,13.11
2023-05-04T03:09:42.138Z,13.32
2023-05-04T03:12:08.972Z,13.30
2023-05-04T03:14:36.437Z,13.45
2023-05-04T03:17:03.323Z,13.36
2023-05-04T03:19:30.592Z,13.22
2023-05-04T03:21:57.431Z,13.03
2023-05-04T03:24:24.826Z,13.00
2023-05-04T03:26:51.979Z,13.14
2023-05-04T03:29:18.817Z,13.15
2023-05-04T03:31:45.835Z,13.50
2023-05-04T03:34:14.767Z,13.46
2023-05-04T03:36:41.901Z,13.25
2023-05-04T03:39:08.860Z,13.63
2023-05-04T03:41:37.125Z,13.67
2023-05-04T03:44:04.114Z,13.61
2023-05-04T03:46:31.973Z,13.48
2023-05-04T03:48:58.776Z,13.55
2023-05-04T03:51:25.709Z,13.62
2023-05-04T03:53:52.561Z,13.50
2023-05-04T03:56:19.442Z,13.66
2023-05-04T03:58:46.274Z,13.90
2023-05-04T04:01:13.911Z,13.89
2023-05-04T04:03:41.130Z,14.06
2023-05-04T04:06:09.233Z,14.00
2023-05-04T04:08:36.379Z,14.02
2023-05-04T04:11:03.439Z,13.89
2023-05-04T04:13:30.774Z,13.94
2023-05-04T04:15:57.653Z,14.18
2023-05-04T04:18:24.748Z,14.06
2023-05-04T04:20:51.477Z,14.14
2023-05-04T04:23:18.714Z,14.11
2023-05-04T04:25:45.886Z,14.15
2023-05-04T04:28:16.090Z,14.27
2023-05-04T04:30:42.869Z,14.32
2023-05-04T04:33:09.653Z,14.34
2023-05-04T04:35:36.763Z,14.51
2023-05-04T04:38:04.037Z,14.63
2023-05-04T04:40:31.404Z,14.64
2023-05-04T04:42:58.316Z,14.54
2023-05-04T04:45:25.192Z,14.94
2023-05-04T04:47:52.270Z,15.02
2023-05-04T04:50:19.245Z,15.15
2023-05-04T04:52:46.043Z,15.20
2023-05-04T04:55:14.983Z,15.22
2023-05-04T04:57:41.757Z,14.99
2023-05-04T05:00:09.702Z,14.87
2023-05-04T05:02:37.373Z,14.93
2023-05-04T05:05:04.569Z,14.97
2023-05-04T05:07:32.279Z,14.81
2023-05-04T05:09:59.320Z,14.82
2023-05-04T05:12:26.254Z,14.93
2023-05-04T05:14:53.183Z,14.64
2023-05-04T05:17:20.145Z,14.99
2023-05-04T05:19:47.578Z,15.11
2023-05-04T05:22:14.543Z,15.18
2023-05-04T05:24:41.844Z,15.13
2023-05-04T05:27:08.840Z,15.19
2023-05-04T05:29:36.604Z,15.54
2023-05-04T05:32:03.890Z,15.72
2023-05-04T05:34:30.767Z,15.66
2023-05-04T05:36:57.805Z,15.59
2023-05-04T05:39:24.641Z,15.85
2023-05-04T05:41:57.061Z,16.19
2023-05-04T05:44:24.021Z,16.25
2023-05-04T05:46:50.768Z,16.23
2023-05-04T05:49:17.690Z,16.41
2023-05-04T05:51:44.636Z,16.77
2023-05-04T05:54:11.492Z,17.15
2023-05-04T05:56:38.221Z,17.65
2023-05-04T05:59:05.749Z,17.79
2023-05-04T06:01:33.324Z,18.25
2023-05-04T06:04:00.640Z,18.21
2023-05-04T06:06:27.809Z,18.68
2023-05-04T06:08:54.607Z,18.68
2023-05-04T06:11:22.338Z,18.88
2023-05-04T06:13:49.336Z,18.81
2023-05-04T06:16:16.339Z,18.41
2023-05-04T06:18:43.230Z,17.92
2023-05-04T06:21:10.220Z,17.91
2023-05-04T06:23:37.035Z,18.28
2023-05-04T06:26:10.112Z,18.81
2023-05-04T06:28:37.154Z,18.66
2023-05-04T06:31:04.041Z,18.13
2023-05-04T06:33:31.554Z,18.05
2023-05-04T06:35:58.412Z,17.39
2023-05-04T06:38:25.383Z,17.56
2023-05-04T06:40:52.429Z,18.18
2023-05-04T06:43:19.790Z,18.72
2023-05-04T06:45:46.753Z,19.20
2023-05-04T06:48:13.777Z,19.22
2023-05-04T06:50:40.542Z,18.62
2023-05-04T06:53:08.997Z,18.50
2023-05-04T06:55:36.654Z,18.43
2023-05-04T06:58:03.672Z,18.42
2023-05-04T07:00:31.561Z,18.54
2023-05-04T07:02:58.401Z,18.69
2023-05-04T07:05:25.661Z,18.44
2023-05-04T07:07:52.909Z,18.48
2023-05-04T07:10:19.796Z,18.77
2023-05-04T07:12:46.957Z,19.17
2023-05-04T07:15:14.076Z,19.15
2023-05-04T07:17:41.456Z,19.04
2023-05-04T07:20:08.735Z,19.10
2023-05-04T07:22:36.015Z,19.47
2023-05-04T07:25:03.165Z,19.83
2023-05-04T07:27:30.803Z,20.17
2023-05-04T07:29:57.986Z,20.53
2023-05-04T07:32:25.119Z,21.06
2023-05-04T07:34:52.136Z,21.45
2023-05-04T07:37:19.020Z,21.83
2023-05-04T07:39:45.755Z,21.74
2023-05-04T07:42:12.787Z,21.28
2023-05-04T07:44:40.717Z,20.82
2023-05-04T07:47:07.612Z,19.88
2023-05-04T07:49:34.545Z,18.71
2023-05-04T07:52:01.490Z,18.76
2023-05-04T07:54:28.543Z,18.68
2023-05-04T07:56:55.600Z,18.04
2023-05-04T07:59:22.536Z,17.94
2023-05-04T08:01:49.508Z,17.90
2023-05-04T08:04:16.325Z,17.52
2023-05-04T08:06:43.295Z,17.13
2023-05-04T08:09:10.423Z,17.30
2023-05-04T08:11:39.141Z,17.39
2023-05-04T08:14:06.087Z,17.90
2023-05-04T08:16:33.188Z,18.17
2023-05-04T08:19:00.814Z,17.20
2023-05-04T08:21:27.750Z,18.27
2023-05-04T08:23:54.685Z,18.70
2023-05-04T08:26:21.518Z,18.69
2023-05-04T08:28:50.476Z,19.12
2023-05-04T08:31:20.869Z,19.51
2023-05-04T08:33:47.902Z,19.42
2023-05-04T08:36:15.005Z,18.52
2023-05-04T08:38:41.843Z,17.75
2023-05-04T08:41:10.525Z,17.66
2023-05-04T08:43:37.744Z,18.10
2023-05-04T08:46:05.840Z,19.39
2023-05-04T08:48:36.446Z,19.94
2023-05-04T08:51:06.107Z,19.21
2023-05-04T08:53:36.047Z,18.89
2023-05-04T08:56:03.850Z,18.75
2023-05-04T08:58:31.159Z,19.05
2023-05-04T09:00:58.650Z,20.09
2023-05-04T09:03:26.060Z,20.02
2023-05-04T09:05:53.596Z,20.14
2023-05-04T09:08:21.006Z,20.30
2023-05-04T09:10:47.910Z,20.33
2023-05-04T09:13:15.618Z,19.69
2023-05-04T09:15:42.462Z,19.51
2023-05-04T09:18:09.443Z,19.74
2023-05-04T09:20:44.562Z,20.08
2023-05-04T09:23:11.710Z,21.13
2023-05-04T09:25:51.729Z,21.16
2023-05-04T09:28:21.015Z,21.37
2023-05-04T09:30:48.451Z,21.52
2023-05-04T09:33:16.002Z,21.88
2023-05-04T09:35:46.179Z,21.80
2023-05-04T09:38:26.128Z,21.92
2023-05-04T09:40:52.996Z,21.92
2023-05-04T09:43:20.063Z,21.58
2023-05-04T09:45:47.418Z,20.97
2023-05-04T09:48:19.519Z,20.03
2023-05-04T09:50:53.983Z,19.82
2023-05-04T09:53:22.759Z,19.92
2023-05-04T09:56:00.701Z,20.34
2023-05-04T09:58:30.111Z,20.39
2023-05-04T10:00:58.512Z,20.59
2023-05-04T10:03:26.025Z,20.86
2023-05-04T10:05:53.708Z,21.26
2023-05-04T10:08:20.710Z,21.32
2023-05-04T10:10:47.564Z,21.68
2023-05-04T10:13:15.085Z,22.08
2023-05-04T10:15:50.975Z,20.93
2023-05-04T10:19:29.501Z,20.39
2023-05-04T10:22:31.456Z,19.17
2023-05-04T10:25:14.212Z,19.00
2023-05-04T10:28:01.809Z,19.17
2023-05-04T10:30:28.856Z,19.65
2023-05-04T10:32:56.825Z,19.93
2023-05-04T10:35:24.056Z,20.03
2023-05-04T10:37:55.204Z,20.58
2023-05-04T10:40:35.539Z,20.67
2023-05-04T10:43:02.508Z,21.40
2023-05-04T10:45:39.526Z,20.53
2023-05-04T10:48:07.996Z,20.46
2023-05-04T10:50:45.229Z,20.32
2023-05-04T10:53:14.009Z,20.32
2023-05-04T10:55:45.557Z,20.75
2023-05-04T10:58:16.006Z,20.30
2023-05-04T11:00:46.003Z,20.07
2023-05-04T11:03:13.441Z,20.20
2023-05-04T11:05:45.022Z,20.66
2023-05-04T11:08:16.331Z,20.55
2023-05-04T11:10:43.200Z,20.27
2023-05-04T11:13:11.523Z,21.47
2023-05-04T11:15:51.638Z,20.44
2023-05-04T11:18:36.990Z,21.28
2023-05-04T11:21:03.765Z,21.77
2023-05-04T11:23:30.961Z,21.82
2023-05-04T11:25:57.768Z,21.79
2023-05-04T11:28:34.215Z,22.09
2023-05-04T11:31:12.138Z,22.20
2023-05-04T11:33:46.504Z,21.43
2023-05-04T11:36:13.293Z,21.11
2023-05-04T11:38:40.322Z,21.12
2023-05-04T11:41:07.977Z,21.34
2023-05-04T11:43:37.110Z,21.67
2023-05-04T11:46:04.097Z,22.13
2023-05-04T11:48:31.694Z,21.02
2023-05-04T11:50:58.676Z,20.79
2023-05-04T11:53:26.329Z,20.80
2023-05-04T11:55:53.935Z,20.83
2023-05-04T11:58:24.876Z,20.96
2023-05-04T12:00:56.026Z,21.17
2023-05-04T12:03:39.720Z,21.27
2023-05-04T12:06:14.455Z,21.23
2023-05-04T12:08:41.720Z,21.43
2023-05-04T12:11:16.144Z,21.16
2023-05-04T12:13:44.533Z,21.12
2023-05-04T12:16:12.137Z,20.97
2023-05-04T12:18:38.995Z,21.12
2023-05-04T12:21:17.989Z,21.94
2023-05-04T12:23:45.533Z,22.10
2023-05-04T12:26:12.365Z,21.80
2023-05-04T12:28:41.126Z,19.05
2023-05-04T12:31:08.211Z,18.50
2023-05-04T12:33:35.570Z,19.09
2023-05-04T12:36:03.916Z,18.93
2023-05-04T12:38:31.172Z,18.96
2023-05-04T12:41:00.214Z,19.21
2023-05-04T12:43:26.966Z,19.11
2023-05-04T12:45:53.904Z,20.43
2023-05-04T12:48:21.149Z,20.36
2023-05-04T12:50:48.808Z,19.32
2023-05-04T12:53:16.481Z,19.32
2023-05-04T12:55:43.431Z,19.07
2023-05-04T12:58:10.478Z,18.91
2023-05-04T13:00:38.129Z,19.01
2023-05-04T13:03:05.210Z,19.83
2023-05-04T13:05:33.127Z,19.29
2023-05-04T13:08:00.264Z,19.66
2023-05-04T13:10:27.527Z,20.05
2023-05-04T13:12:54.332Z,19.08
2023-05-04T13:15:21.203Z,20.65
2023-05-04T13:17:48.074Z,22.03
2023-05-04T13:20:15.527Z,22.13
2023-05-04T13:22:45.859Z,22.51
2023-05-04T13:25:13.133Z,22.33
2023-05-04T13:27:40.138Z,20.01
2023-05-04T13:30:08.607Z,18.25
2023-05-04T13:32:35.760Z,19.76
2023-05-04T13:35:04.118Z,18.93
2023-05-04T13:37:31.322Z,20.68
2023-05-04T13:39:58.909Z,19.61
2023-05-04T13:42:26.023Z,19.84
2023-05-04T13:44:52.804Z,20.90
2023-05-04T13:47:19.555Z,21.26
2023-05-04T13:49:46.282Z,21.47
2023-05-04T13:52:13.501Z,21.37
2023-05-04T13:54:40.807Z,21.69
2023-05-04T13:57:07.529Z,18.39
2023-05-04T13:59:34.505Z,18.46
2023-05-04T14:02:01.515Z,17.93
2023-05-04T14:04:29.684Z,18.13
2023-05-04T14:06:57.111Z,18.60
2023-05-04T14:09:25.177Z,18.91
2023-05-04T14:11:52.997Z,17.95
2023-05-04T14:14:21.383Z,18.43
2023-05-04T14:16:48.183Z,19.15
2023-05-04T14:19:14.997Z,19.23
2023-05-04T14:21:41.708Z,19.46
2023-05-04T14:24:08.522Z,19.73
2023-05-04T14:26:35.592Z,19.71
2023-05-04T14:29:03.049Z,19.85
2023-05-04T14:31:30.414Z,19.76
2023-05-04T14:33:57.189Z,19.51
2023-05-04T14:36:24.033Z,18.46
2023-05-04T14:38:50.773Z,17.59
2023-05-04T14:41:17.801Z,17.20
2023-05-04T14:43:44.609Z,16.76
2023-05-04T14:46:12.533Z,15.59
2023-05-04T14:48:39.645Z,15.87
2023-05-04T14:51:06.504Z,16.30
2023-05-04T14:53:36.915Z,17.84
2023-05-04T14:56:05.059Z,16.51
2023-05-04T14:58:32.001Z,17.35
2023-05-04T15:00:59.138Z,17.70
2023-05-04T15:03:26.209Z,17.78
2023-05-04T15:05:54.151Z,18.21
2023-05-04T15:08:21.830Z,18.51
2023-05-04T15:10:48.617Z,18.34
2023-05-04T15:13:17.266Z,18.29
2023-05-04T15:15:44.330Z,18.49
2023-05-04T15:18:11.857Z,18.52
2023-05-04T15:20:38.954Z,18.47
2023-05-04T15:23:11.600Z,18.71
2023-05-04T15:25:38.982Z,18.67
2023-05-04T15:28:15.722Z,18.80
2023-05-04T15:30:42.918Z,16.29
2023-05-04T15:33:09.820Z,15.54
2023-05-04T15:35:37.653Z,16.05
2023-05-04T15:38:04.624Z,16.26
2023-05-04T15:40:31.632Z,16.52
2023-05-04T15:42:58.681Z,16.20
2023-05-04T15:45:25.619Z,16.42
2023-05-04T15:47:53.885Z,15.73
2023-05-04T15:50:21.035Z,15.85
2023-05-04T15:52:47.890Z,16.69
2023-05-04T15:55:25.543Z,17.10
2023-05-04T15:57:53.559Z,16.80
2023-05-04T16:00:20.959Z,16.48
2023-05-04T16:02:47.812Z,16.49
2023-05-04T16:05:14.830Z,16.57
2023-05-04T16:07:41.650Z,16.35
2023-05-04T16:10:09.772Z,16.66
2023-05-04T16:12:40.358Z,17.02
2023-05-04T16:15:07.486Z,16.26
2023-05-04T16:17:34.865Z,15.04
2023-05-04T16:20:03.034Z,14.61
2023-05-04T16:22:30.624Z,14.67
2023-05-04T16:24:57.329Z,14.56
2023-05-04T16:27:26.279Z,15.87
2023-05-04T16:29:53.259Z,16.30
2023-05-04T16:32:20.593Z,16.22
2023-05-04T16:34:47.473Z,16.19
2023-05-04T16:37:15.454Z,15.94
2023-05-04T16:39:42.238Z,16.11
2023-05-04T16:42:09.187Z,16.01
2023-05-04T16:44:36.805Z,15.79
2023-05-04T16:47:03.712Z,15.81
2023-05-04T16:49:31.601Z,15.95
2023-05-04T16:51:58.433Z,16.09
2023-05-04T16:54:25.642Z,16.14
2023-05-04T16:56:52.502Z,16.22
2023-05-04T16:59:19.304Z,16.20
2023-05-04T17:01:46.513Z,16.10
2023-05-04T17:04:13.300Z,15.94
2023-05-04T17:06:40.166Z,15.81
2023-05-04T17:09:07.003Z,15.99
2023-05-04T17:11:33.989Z,16.17
2023-05-04T17:14:01.000Z,16.19
2023-05-04T17:16:27.960Z,15.13
2023-05-04T17:18:54.888Z,14.90
2023-05-04T17:21:22.038Z,15.21
2023-05-04T17:23:48.845Z,15.42
2023-05-04T17:26:16.020Z,15.01
2023-05-04T17:28:42.856Z,15.07
2023-05-04T17:31:11.832Z,14.96
2023-05-04T17:33:39.419Z,14.82
2023-05-04T17:36:07.145Z,14.97
2023-05-04T17:38:34.557Z,15.17
2023-05-04T17:41:01.616Z,15.14
2023-05-04T17:43:28.729Z,15.36
2023-05-04T17:45:56.103Z,15.43
2023-05-04T17:48:23.440Z,15.36
2023-05-04T17:50:50.972Z,15.61
2023-05-04T17:53:17.941Z,15.91
2023-05-04T17:55:45.392Z,15.71
2023-05-04T17:58:12.249Z,15.63
2023-05-04T18:00:39.110Z,15.70
2023-05-04T18:03:06.136Z,15.67
2023-05-04T18:05:33.379Z,15.08
2023-05-04T18:08:00.299Z,15.16
2023-05-04T18:10:27.160Z,15.11
2023-05-04T18:12:55.979Z,15.03
2023-05-04T18:15:23.707Z,15.03
2023-05-04T18:17:50.687Z,14.86
2023-05-04T18:20:17.499Z,14.84
2023-05-04T18:22:44.806Z,14.81
2023-05-04T18:25:12.988Z,14.84
2023-05-04T18:27:39.886Z,14.95
2023-05-04T18:30:08.120Z,15.23
2023-05-04T18:32:36.222Z,15.26
2023-05-04T18:35:03.537Z,14.89
2023-05-04T18:37:30.814Z,15.22
2023-05-04T18:39:58.080Z,15.24
2023-05-04T18:42:25.020Z,15.23
2023-05-04T18:44:52.787Z,15.13
2023-05-04T18:47:19.842Z,14.83
2023-05-04T18:49:51.726Z,14.51
2023-05-04T18:52:18.533Z,14.51
2023-05-04T18:54:45.686Z,14.57
2023-05-04T18:57:13.649Z,14.68
2023-05-04T18:59:40.624Z,14.68
2023-05-04T19:02:08.908Z,14.70
2023-05-04T19:04:36.256Z,14.76
2023-05-04T19:07:03.169Z,14.79
2023-05-04T19:09:31.065Z,14.84
2023-05-04T19:11:57.890Z,14.87
2023-05-04T19:14:28.140Z,14.90
2023-05-04T19:16:57.607Z,14.74
2023-05-04T19:19:25.464Z,14.72
2023-05-04T19:21:52.512Z,14.79
2023-05-04T19:24:19.451Z,14.85
2023-05-04T19:26:46.708Z,14.93
2023-05-04T19:29:13.559Z,15.09
2023-05-04T19:31:40.810Z,14.97
2023-05-04T19:34:07.746Z,15.02
2023-05-04T19:36:35.029Z,15.17
2023-05-04T19:39:01.871Z,14.84
2023-05-04T19:41:28.987Z,14.48
2023-05-04T19:43:56.445Z,14.50
2023-05-04T19:46:24.172Z,14.68
2023-05-04T19:48:51.084Z,14.72
2023-05-04T19:51:17.938Z,14.72
2023-05-04T19:53:44.838Z,14.56
2023-05-04T19:56:11.775Z,14.48
2023-05-04T19:58:38.786Z,14.50
2023-05-04T20:01:05.812Z,14.58
2023-05-04T20:03:32.717Z,14.60
2023-05-04T20:06:02.935Z,14.89
2023-05-04T20:08:30.296Z,15.00
2023-05-04T20:10:57.237Z,15.30
2023-05-04T20:13:25.054Z,15.57
2023-05-04T20:15:51.937Z,15.62
2023-05-04T20:18:19.552Z,15.35
2023-05-04T20:20:46.400Z,15.29
2023-05-04T20:23:13.283Z,15.46
2023-05-04T20:25:40.540Z,15.39
2023-05-04T20:28:07.443Z,15.29
2023-05-04T20:30:34.256Z,15.25
2023-05-04T20:33:01.065Z,15.32
2023-05-04T20:35:28.213Z,15.39
2023-05-04T20:37:54.895Z,15.20
2023-05-04T20:40:21.996Z,14.36
2023-05-04T20:42:48.897Z,12.04
2023-05-04T20:45:15.762Z,12.84
2023-05-04T20:47:42.705Z,13.45
2023-05-04T20:50:11.241Z,13.21
2023-05-04T20:52:38.602Z,13.65
2023-05-04T20:55:06.900Z,14.17
2023-05-04T20:57:33.909Z,14.58
2023-05-04T21:00:01.095Z,14.63
2023-05-04T21:02:28.733Z,14.44
2023-05-04T21:04:55.638Z,14.30
2023-05-04T21:07:22.339Z,14.48
2023-05-04T21:09:49.128Z,14.56
2023-05-04T21:12:16.064Z,14.78
2023-05-04T21:14:43.313Z,15.08
2023-05-04T21:17:10.136Z,14.98
2023-05-04T21:19:37.306Z,14.78
2023-05-04T21:22:04.024Z,14.84
2023-05-04T21:24:32.630Z,14.16
2023-05-04T21:26:59.583Z,12.74
2023-05-04T21:29:26.625Z,11.67
2023-05-04T21:31:53.775Z,12.62
2023-05-04T21:34:20.856Z,13.10
2023-05-04T21:36:47.605Z,13.27
2023-05-04T21:39:15.459Z,13.46
2023-05-04T21:41:42.321Z,13.61
2023-05-04T21:44:09.109Z,13.73
2023-05-04T21:46:35.944Z,13.81
2023-05-04T21:49:03.409Z,13.99
2023-05-04T21:51:31.126Z,13.24
2023-05-04T21:53:58.020Z,13.51
2023-05-04T21:56:24.957Z,13.72
2023-05-04T21:58:51.905Z,14.01
2023-05-04T22:01:19.266Z,14.34
2023-05-04T22:03:46.178Z,14.50
2023-05-04T22:06:13.182Z,14.57
2023-05-04T22:08:40.304Z,14.77
2023-05-04T22:11:07.237Z,14.90
2023-05-04T22:13:34.443Z,13.88
2023-05-04T22:16:01.295Z,13.32
2023-05-04T22:18:28.277Z,13.35
2023-05-04T22:20:55.181Z,13.46
2023-05-04T22:23:22.049Z,13.43
2023-05-04T22:25:48.799Z,13.52
2023-05-04T22:28:15.742Z,13.70
2023-05-04T22:30:42.930Z,13.86
2023-05-04T22:33:09.714Z,13.95
2023-05-04T22:35:36.605Z,14.06
2023-05-04T22:38:04.480Z,14.17
2023-05-04T22:40:31.490Z,14.31
2023-05-04T22:42:58.350Z,14.05
2023-05-04T22:45:25.176Z,14.25
2023-05-04T22:47:52.211Z,14.44
2023-05-04T22:50:19.378Z,14.54
2023-05-04T22:52:46.180Z,14.38
2023-05-04T22:55:13.159Z,14.47
2023-05-04T22:57:39.998Z,14.49
2023-05-04T23:00:08.144Z,14.89
2023-05-04T23:02:36.347Z,15.10
2023-05-04T23:05:04.352Z,15.35
2023-05-04T23:07:31.561Z,15.15
2023-05-04T23:09:59.606Z,11.45
2023-05-04T23:12:27.122Z,12.23
2023-05-04T23:14:54.245Z,12.53
2023-05-04T23:17:21.533Z,12.08
2023-05-04T23:19:48.288Z,12.47
2023-05-04T23:22:15.424Z,12.76
2023-05-04T23:24:42.586Z,12.86
2023-05-04T23:27:10.564Z,12.83
2023-05-04T23:29:37.462Z,12.90
2023-05-04T23:32:04.915Z,13.03
2023-05-04T23:34:33.022Z,13.12
2023-05-04T23:37:00.090Z,13.27
2023-05-04T23:39:27.283Z,13.39
2023-05-04T23:41:54.049Z,13.48
2023-05-04T23:44:21.233Z,13.58
2023-05-04T23:46:48.102Z,13.82
2023-05-04T23:49:15.772Z,14.00
2023-05-04T23:51:42.605Z,13.77
2023-05-04T23:54:09.489Z,13.62
2023-05-04T23:56:36.816Z,13.73
2023-05-04T23:59:03.662Z,13.71
